createdAt,value
2019-03-29T00:01:37.579Z,103574.03
2019-03-29T00:06:40.268Z,103570.69
2019-03-29T00:11:42.972Z,103557.08
2019-03-29T00:16:45.816Z,103555.70
2019-03-29T00:21:48.401Z,103545.06
2019-03-29T00:26:54.521Z,103544.19
2019-03-29T00:31:57.046Z,103541.08
2019-03-29T00:37:01.138Z,103525.57
2019-03-29T00:42:06.988Z,103529.52
2019-03-29T00:47:09.609Z,103516.50
2019-03-29T00:52:12.204Z,103514.09
2019-03-29T00:57:14.863Z,103508.16
2019-03-29T01:02:19.062Z,103503.98
2019-03-29T01:07:22.136Z,103504.75
2019-03-29T01:12:26.199Z,103497.76
2019-03-29T01:17:28.865Z,103501.16
2019-03-29T01:22:32.016Z,103486.67
2019-03-29T01:27:35.116Z,103500.05
2019-03-29T01:32:37.738Z,103475.00
2019-03-29T01:37:40.332Z,103479.50
2019-03-29T01:42:45.032Z,103471.34
2019-03-29T01:47:47.930Z,103479.73
2019-03-29T01:52:50.480Z,103476.14
2019-03-29T01:57:53.032Z,103464.50
2019-03-29T02:02:55.586Z,103457.47
2019-03-29T02:07:58.261Z,103456.36
2019-03-29T02:13:03.160Z,103458.45
2019-03-29T02:18:05.827Z,103463.86
2019-03-29T02:23:08.460Z,103463.52
2019-03-29T02:28:13.824Z,103455.62
2019-03-29T02:33:16.435Z,103463.86
2019-03-29T02:38:19.003Z,103459.45
2019-03-29T02:43:23.870Z,103452.41
2019-03-29T02:48:26.417Z,103461.11
2019-03-29T02:53:31.385Z,103458.80
2019-03-29T02:58:33.913Z,103466.41
2019-03-29T03:03:39.527Z,103458.84
2019-03-29T03:08:42.334Z,103454.95
2019-03-29T03:13:46.169Z,103455.92
2019-03-29T03:18:52.603Z,103452.34
2019-03-29T03:23:55.254Z,103446.09
2019-03-29T03:28:59.320Z,103441.17
2019-03-29T03:34:02.511Z,103452.06
2019-03-29T03:39:06.941Z,103449.06
2019-03-29T03:44:09.536Z,103446.98
2019-03-29T03:49:12.224Z,103451.72
2019-03-29T03:54:16.413Z,103441.85
2019-03-29T03:59:19.890Z,103440.26
2019-03-29T04:04:26.213Z,103441.69
2019-03-29T04:09:48.454Z,103445.96
2019-03-29T04:14:36.272Z,103447.17
2019-03-29T04:19:41.515Z,103446.08
2019-03-29T04:24:44.149Z,103450.96
2019-03-29T04:29:46.718Z,103445.22
2019-03-29T04:34:51.513Z,103441.30
2019-03-29T04:40:06.990Z,103448.45
2019-03-29T04:44:59.947Z,103441.66
2019-03-29T04:50:02.661Z,103434.23
2019-03-29T04:55:05.625Z,103443.64
2019-03-29T05:00:08.593Z,103440.69
2019-03-29T05:05:12.726Z,103440.80
2019-03-29T05:10:21.628Z,103441.95
2019-03-29T05:15:20.953Z,103434.80
2019-03-29T05:20:25.914Z,103429.75
2019-03-29T05:25:28.576Z,103432.58
2019-03-29T05:30:31.111Z,103433.94
2019-03-29T05:35:33.776Z,103433.69
2019-03-29T05:40:36.384Z,103436.61
2019-03-29T05:45:41.624Z,103436.67
2019-03-29T05:50:44.164Z,103434.45
2019-03-29T05:55:48.468Z,103439.84
2019-03-29T06:00:51.312Z,103442.84
2019-03-29T06:05:54.067Z,103436.86
2019-03-29T06:10:56.629Z,103436.10
2019-03-29T06:15:59.446Z,103437.87
2019-03-29T06:21:03.935Z,103441.88
2019-03-29T06:26:06.492Z,103439.92
2019-03-29T06:31:11.714Z,103438.30
2019-03-29T06:36:16.003Z,103433.34
2019-03-29T06:41:18.643Z,103424.19
2019-03-29T06:46:21.440Z,103427.25
2019-03-29T06:51:27.020Z,103428.59
2019-03-29T06:56:29.919Z,103432.02
2019-03-29T07:01:32.665Z,103434.39
2019-03-29T07:06:40.199Z,103428.58
2019-03-29T07:11:43.976Z,103425.18
2019-03-29T07:16:46.781Z,103415.90
2019-03-29T07:21:49.315Z,103413.81
2019-03-29T07:26:52.203Z,103422.72
2019-03-29T07:31:54.854Z,103417.77
2019-03-29T07:36:57.670Z,103419.39
2019-03-29T07:42:00.560Z,103411.88
2019-03-29T07:47:09.142Z,103412.31
2019-03-29T07:52:11.768Z,103411.02
2019-03-29T07:57:21.158Z,103405.56
2019-03-29T08:02:23.727Z,103412.47
2019-03-29T08:07:27.715Z,103410.23
2019-03-29T08:12:31.064Z,103415.20
2019-03-29T08:17:35.634Z,103410.88
2019-03-29T08:22:38.202Z,103415.08
2019-03-29T08:27:42.152Z,103416.47
2019-03-29T08:32:49.047Z,103414.98
2019-03-29T08:37:52.259Z,103413.20
2019-03-29T08:42:55.276Z,103407.05
2019-03-29T08:47:59.253Z,103402.84
2019-03-29T08:53:01.924Z,103387.69
2019-03-29T08:58:04.660Z,103383.97
2019-03-29T09:03:07.645Z,103382.29
2019-03-29T09:08:15.265Z,103377.18
2019-03-29T09:13:21.409Z,103377.18
2019-03-29T09:18:26.107Z,103369.42
2019-03-29T09:23:34.970Z,103364.93
2019-03-29T09:28:39.801Z,103357.23
2019-03-29T09:33:46.391Z,103353.11
2019-03-29T09:38:50.029Z,103353.48
2019-03-29T09:43:59.964Z,103353.06
2019-03-29T09:49:08.656Z,103345.41
2019-03-29T09:54:14.371Z,103336.46
2019-03-29T09:59:33.418Z,103339.53
2019-03-29T10:04:52.198Z,103332.77
2019-03-29T10:10:03.240Z,103331.36
2019-03-29T10:15:13.416Z,103321.20
2019-03-29T10:20:18.308Z,103312.20
2019-03-29T10:25:21.742Z,103309.77
2019-03-29T10:30:38.274Z,103299.16
2019-03-29T10:35:51.634Z,103297.48
2019-03-29T10:40:47.030Z,103282.69
2019-03-29T10:45:51.992Z,103281.88
2019-03-29T10:50:54.534Z,103281.88
2019-03-29T10:55:57.348Z,103268.49
2019-03-29T11:00:59.893Z,103260.18
2019-03-29T11:19:19.050Z,103229.02
2019-03-29T11:24:22.123Z,103224.75
2019-03-29T11:33:34.397Z,103209.79
2019-03-29T11:38:36.980Z,103210.45
2019-03-29T11:43:39.658Z,103211.91
2019-03-29T11:48:44.072Z,103202.05
2019-03-29T11:53:50.847Z,103192.64
2019-03-29T11:58:52.261Z,103182.26
2019-03-29T12:03:55.046Z,103177.36
2019-03-29T12:08:57.627Z,103164.41
2019-03-29T12:14:00.458Z,103159.16
2019-03-29T12:37:43.988Z,103147.05
2019-03-29T12:42:46.651Z,103144.60
2019-03-29T12:51:33.864Z,103124.73
2019-03-29T12:56:36.705Z,103127.26
2019-03-29T13:01:40.841Z,103116.91
2019-03-29T13:06:43.381Z,103103.81
2019-03-29T13:11:46.033Z,103097.33
2019-03-29T13:16:48.579Z,103092.28
2019-03-29T13:21:51.159Z,103081.30
2019-03-29T13:26:54.395Z,103074.71
2019-03-29T13:31:57.342Z,103066.39
2019-03-29T13:37:01.692Z,103061.47
2019-03-29T13:42:04.901Z,103046.00
2019-03-29T13:47:07.447Z,103035.39
2019-03-29T13:52:14.237Z,103032.44
2019-03-29T13:57:16.799Z,103024.55
2019-03-29T14:02:19.688Z,103002.22
2019-03-29T14:07:22.285Z,103002.59
2019-03-29T14:12:25.226Z,102986.61
2019-03-29T14:17:27.781Z,102973.34
2019-03-29T14:22:30.668Z,102967.95
2019-03-29T14:27:33.248Z,102964.98
2019-03-29T14:32:36.070Z,102958.64
2019-03-29T14:37:38.625Z,102951.20
2019-03-29T14:42:41.443Z,102948.52
2019-03-29T14:47:44.257Z,102946.47
2019-03-29T14:52:49.497Z,102937.55
2019-03-29T14:57:52.053Z,102926.14
2019-03-29T15:02:54.803Z,102919.66
2019-03-29T15:07:59.867Z,102913.72
2019-03-29T15:13:02.435Z,102907.14
2019-03-29T15:18:05.050Z,102902.48
2019-03-29T15:23:07.736Z,102898.30
2019-03-29T15:28:10.389Z,102894.87
2019-03-29T15:33:19.195Z,102890.41
2019-03-29T15:38:21.837Z,102888.05
2019-03-29T15:43:24.606Z,102873.34
2019-03-29T15:48:27.198Z,102876.31
2019-03-29T15:53:32.204Z,102864.52
2019-03-29T15:58:34.755Z,102861.73
2019-03-29T16:03:38.871Z,102859.14
2019-03-29T16:08:41.432Z,102852.22
2019-03-29T16:13:46.796Z,102847.05
2019-03-29T16:18:49.338Z,102847.11
2019-03-29T16:23:52.014Z,102839.84
2019-03-29T16:28:54.616Z,102835.16
2019-03-29T16:33:57.231Z,102839.02
2019-03-29T16:38:59.787Z,102833.13
2019-03-29T16:44:05.495Z,102832.86
2019-03-29T16:49:08.088Z,102820.54
2019-03-29T16:54:10.633Z,102816.93
2019-03-29T16:59:13.241Z,102811.92
2019-03-29T17:04:15.834Z,102802.95
2019-03-29T17:09:18.479Z,102800.76
2019-03-29T17:14:21.032Z,102797.80
2019-03-29T17:19:23.991Z,102797.25
2019-03-29T17:24:26.525Z,102790.81
2019-03-29T17:29:31.893Z,102789.77
2019-03-29T17:34:34.454Z,102779.48
2019-03-29T17:39:37.103Z,102781.30
2019-03-29T17:44:40.875Z,102776.26
2019-03-29T17:49:43.429Z,102784.09
2019-03-29T17:54:48.707Z,102773.61
2019-03-29T17:59:51.285Z,102775.92
2019-03-29T18:04:53.878Z,102774.84
2019-03-29T18:09:56.433Z,102775.84
2019-03-29T18:15:00.425Z,102776.59
2019-03-29T18:20:03.401Z,102777.23
2019-03-29T18:25:06.124Z,102773.47
2019-03-29T18:30:09.525Z,102760.70
2019-03-29T18:35:12.202Z,102764.72
2019-03-29T18:40:24.549Z,102774.23
2019-03-29T18:45:27.170Z,102780.43
2019-03-29T18:50:29.733Z,102780.43
2019-03-29T18:55:32.315Z,102769.95
2019-03-29T19:00:35.541Z,102772.62
2019-03-29T19:05:38.132Z,102778.27
2019-03-29T19:10:43.676Z,102770.69
2019-03-29T19:15:46.255Z,102786.37
2019-03-29T19:20:51.493Z,102791.41
2019-03-29T19:25:56.850Z,102796.69
2019-03-29T19:30:59.459Z,102784.26
2019-03-29T19:36:02.333Z,102777.75
2019-03-29T19:41:05.236Z,102778.64
2019-03-29T19:46:09.257Z,102778.64
2019-03-29T19:51:11.773Z,102777.09
2019-03-29T19:56:16.331Z,102772.91
2019-03-29T20:01:19.026Z,102777.05
2019-03-29T20:06:21.673Z,102783.52
2019-03-29T20:11:24.431Z,102779.37
2019-03-29T20:16:27.121Z,102776.72
2019-03-29T20:21:29.922Z,102771.55
2019-03-29T20:26:32.525Z,102761.99
2019-03-29T20:31:35.120Z,102760.34
2019-03-29T20:36:37.683Z,102760.81
2019-03-29T20:41:40.431Z,102752.80
2019-03-29T20:46:43.043Z,102752.93
2019-03-29T20:51:45.642Z,102745.61
2019-03-29T20:56:48.457Z,102743.40
2019-03-29T21:01:53.037Z,102743.02
2019-03-29T21:06:55.614Z,102737.20
2019-03-29T21:11:58.353Z,102736.94
2019-03-29T21:17:02.337Z,102732.65
2019-03-29T21:22:04.913Z,102721.40
2019-03-29T21:27:07.607Z,102718.67
2019-03-29T21:32:13.170Z,102719.00
2019-03-29T21:37:15.727Z,102719.22
2019-03-29T21:42:18.575Z,102717.33
2019-03-29T21:47:21.129Z,102718.54
2019-03-29T21:52:23.694Z,102715.37
2019-03-29T21:57:29.272Z,102708.11
2019-03-29T22:02:33.220Z,102703.67
2019-03-29T22:07:35.798Z,102698.04
2019-03-29T22:12:38.457Z,102697.92
2019-03-29T22:17:41.367Z,102694.02
2019-03-29T22:22:45.396Z,102699.16
2019-03-29T22:27:47.950Z,102684.73
2019-03-29T22:32:50.594Z,102680.67
2019-03-29T22:37:53.135Z,102675.31
2019-03-29T22:42:55.784Z,102666.40
2019-03-29T22:47:59.482Z,102655.55
2019-03-29T22:53:02.459Z,102651.86
2019-03-29T22:58:05.036Z,102653.86
2019-03-29T23:03:08.354Z,102649.94
2019-03-29T23:08:10.896Z,102640.94
2019-03-29T23:13:16.461Z,102644.01
2019-03-29T23:18:21.780Z,102637.28
2019-03-29T23:23:24.324Z,102632.09
2019-03-29T23:28:26.867Z,102627.91
2019-03-29T23:33:29.740Z,102616.13
2019-03-29T23:38:32.367Z,102621.55
2019-03-29T23:43:39.790Z,102614.81
2019-03-29T23:48:45.484Z,102604.29
2019-03-29T23:53:48.018Z,102602.95
2019-03-29T23:58:50.687Z,102588.02
